UKDR/KWG METAR and TAF weather

Enter ICAO airport designator
Station Type Date Time Source
UKDR METAR 2019/06/26 16:00 UTC NOAA

UKDR 261600Z 04003MPS 010V080 CAVOK 27/07 Q1021 R36/09//70 NOSIG


Station Type Date Time Source
UKDR Decoded METAR 2019/06/26 16:00 UTC NOAA

Krivyy Rih / Dnipropetrovs'k, Ukraine (UKDR) 48-03N 033-13-12E
Jun 26, 2019 - 12:00 PM EDT / 2019.06.26 1600 UTC
Wind: from the NE (040 degrees) at 7 MPH (6 KT) (direction variable):0
Visibility: greater than 7 mile(s):0
Temperature: 80 F (27 C)
Dew Point: 44 F (7 C)
Relative Humidity: 28%
Pressure (altimeter): 30.15 in. Hg (1021 hPa)
ob: UKDR 261600Z 04003MPS 010V080 CAVOK 27/07 Q1021 R36/09//70 NOSIG
cycle: 16

Station Type Date Time Source
UKDR TAF 2019/06/26 12:00 UTC NOAA

TAF UKDR 261107Z 2612/2712 04005G10MPS 9999 SCT030 TX29/2612Z TN17/2702Z
BECMG 2616/2618 VRB01MPS
BECMG 2706/2708 24006MPS

Example: see airport list